sensor_id;sensor_type;location;lat;lon;timestamp;temperature;humidity
8914;DHT22;4492;48.736;9.092;2023-05-07T00:01:07;11.00;99.90
8914;DHT22;4492;48.736;9.092;2023-05-07T00:03:32;10.90;99.90
8914;DHT22;4492;48.736;9.092;2023-05-07T00:05:58;10.90;99.90
8914;DHT22;4492;48.736;9.092;2023-05-07T00:08:24;10.90;99.90
8914;DHT22;4492;48.736;9.092;2023-05-07T00:10:49;10.90;99.90
8914;DHT22;4492;48.736;9.092;2023-05-07T00:13:15;10.90;99.90
8914;DHT22;4492;48.736;9.092;2023-05-07T00:15:40;10.80;99.90
8914;DHT22;4492;48.736;9.092;2023-05-07T00:18:06;10.80;99.90
8914;DHT22;4492;48.736;9.092;2023-05-07T00:20:32;10.80;99.90
8914;DHT22;4492;48.736;9.092;2023-05-07T00:22:57;10.80;99.90
8914;DHT22;4492;48.736;9.092;2023-05-07T00:25:23;10.80;99.90
8914;DHT22;4492;48.736;9.092;2023-05-07T00:27:48;10.80;99.90
8914;DHT22;4492;48.736;9.092;2023-05-07T00:30:14;10.70;99.90
8914;DHT22;4492;48.736;9.092;2023-05-07T00:32:39;10.70;99.90
8914;DHT22;4492;48.736;9.092;2023-05-07T00:35:06;10.70;99.90
8914;DHT22;4492;48.736;9.092;2023-05-07T00:37:31;10.60;99.90
8914;DHT22;4492;48.736;9.092;2023-05-07T00:39:58;10.60;99.90
8914;DHT22;4492;48.736;9.092;2023-05-07T00:42:24;10.60;99.90
8914;DHT22;4492;48.736;9.092;2023-05-07T00:44:49;10.60;99.90
8914;DHT22;4492;48.736;9.092;2023-05-07T00:47:17;10.60;99.90
8914;DHT22;4492;48.736;9.092;2023-05-07T00:49:43;10.60;99.90
8914;DHT22;4492;48.736;9.092;2023-05-07T00:52:11;10.60;99.90
8914;DHT22;4492;48.736;9.092;2023-05-07T00:54:38;10.60;99.90
8914;DHT22;4492;48.736;9.092;2023-05-07T00:57:05;10.60;99.90
8914;DHT22;4492;48.736;9.092;2023-05-07T00:59:32;10.60;99.90
8914;DHT22;4492;48.736;9.092;2023-05-07T01:01:58;10.60;99.90
8914;DHT22;4492;48.736;9.092;2023-05-07T01:04:24;10.60;99.90
8914;DHT22;4492;48.736;9.092;2023-05-07T01:06:50;10.70;99.90
8914;DHT22;4492;48.736;9.092;2023-05-07T01:09:18;10.70;99.90
8914;DHT22;4492;48.736;9.092;2023-05-07T01:11:45;10.70;99.90
8914;DHT22;4492;48.736;9.092;2023-05-07T01:14:11;10.70;99.90
8914;DHT22;4492;48.736;9.092;2023-05-07T01:16:37;10.70;99.90
8914;DHT22;4492;48.736;9.092;2023-05-07T01:19:03;10.70;99.90
8914;DHT22;4492;48.736;9.092;2023-05-07T01:21:32;10.70;99.90
8914;DHT22;4492;48.736;9.092;2023-05-07T01:23:59;10.70;99.90
8914;DHT22;4492;48.736;9.092;2023-05-07T01:26:24;10.60;99.90
8914;DHT22;4492;48.736;9.092;2023-05-07T01:28:50;10.60;99.90
8914;DHT22;4492;48.736;9.092;2023-05-07T01:31:16;10.60;99.90
8914;DHT22;4492;48.736;9.092;2023-05-07T01:33:44;10.60;99.90
8914;DHT22;4492;48.736;9.092;2023-05-07T01:36:11;10.60;99.90
8914;DHT22;4492;48.736;9.092;2023-05-07T01:38:39;10.60;99.90
8914;DHT22;4492;48.736;9.092;2023-05-07T01:41:06;10.60;99.90
8914;DHT22;4492;48.736;9.092;2023-05-07T01:43:32;10.60;99.90
8914;DHT22;4492;48.736;9.092;2023-05-07T01:45:58;10.60;99.90
8914;DHT22;4492;48.736;9.092;2023-05-07T01:48:25;10.50;99.90
8914;DHT22;4492;48.736;9.092;2023-05-07T01:50:51;10.50;99.90
8914;DHT22;4492;48.736;9.092;2023-05-07T01:53:17;10.50;99.90
8914;DHT22;4492;48.736;9.092;2023-05-07T01:55:42;10.50;99.90
8914;DHT22;4492;48.736;9.092;2023-05-07T01:58:08;10.50;99.90
8914;DHT22;4492;48.736;9.092;2023-05-07T02:00:33;10.60;99.90
8914;DHT22;4492;48.736;9.092;2023-05-07T02:02:59;10.60;99.90
8914;DHT22;4492;48.736;9.092;2023-05-07T02:05:25;10.60;99.90
8914;DHT22;4492;48.736;9.092;2023-05-07T02:07:50;10.70;99.90
8914;DHT22;4492;48.736;9.092;2023-05-07T02:10:16;10.70;99.90
8914;DHT22;4492;48.736;9.092;2023-05-07T02:12:41;10.70;99.90
8914;DHT22;4492;48.736;9.092;2023-05-07T02:15:08;10.80;99.90
8914;DHT22;4492;48.736;9.092;2023-05-07T02:17:33;10.80;99.90
8914;DHT22;4492;48.736;9.092;2023-05-07T02:19:59;10.90;99.90
8914;DHT22;4492;48.736;9.092;2023-05-07T02:22:25;10.90;99.90
8914;DHT22;4492;48.736;9.092;2023-05-07T02:24:51;10.90;99.90
8914;DHT22;4492;48.736;9.092;2023-05-07T02:27:16;10.90;99.90
8914;DHT22;4492;48.736;9.092;2023-05-07T02:29:42;10.90;99.90
8914;DHT22;4492;48.736;9.092;2023-05-07T02:32:07;10.90;99.90
8914;DHT22;4492;48.736;9.092;2023-05-07T02:34:33;10.80;99.90
8914;DHT22;4492;48.736;9.092;2023-05-07T02:36:58;10.80;99.90
8914;DHT22;4492;48.736;9.092;2023-05-07T02:39:24;10.70;99.90
8914;DHT22;4492;48.736;9.092;2023-05-07T02:41:49;10.70;99.90
8914;DHT22;4492;48.736;9.092;2023-05-07T02:44:15;10.60;99.90
8914;DHT22;4492;48.736;9.092;2023-05-07T02:46:40;10.60;99.90
8914;DHT22;4492;48.736;9.092;2023-05-07T02:49:06;10.50;99.90
8914;DHT22;4492;48.736;9.092;2023-05-07T02:51:32;10.50;99.90
8914;DHT22;4492;48.736;9.092;2023-05-07T02:53:57;10.40;99.90
8914;DHT22;4492;48.736;9.092;2023-05-07T02:56:25;10.40;99.90
8914;DHT22;4492;48.736;9.092;2023-05-07T02:58:50;10.30;99.90
8914;DHT22;4492;48.736;9.092;2023-05-07T03:01:16;10.30;99.90
8914;DHT22;4492;48.736;9.092;2023-05-07T03:03:41;10.30;99.90
8914;DHT22;4492;48.736;9.092;2023-05-07T03:06:07;10.30;99.90
8914;DHT22;4492;48.736;9.092;2023-05-07T03:08:33;10.30;99.90
8914;DHT22;4492;48.736;9.092;2023-05-07T03:10:58;10.30;99.90
8914;DHT22;4492;48.736;9.092;2023-05-07T03:13:24;10.20;99.90
8914;DHT22;4492;48.736;9.092;2023-05-07T03:15:49;10.10;99.90
8914;DHT22;4492;48.736;9.092;2023-05-07T03:18:15;10.10;99.90
8914;DHT22;4492;48.736;9.092;2023-05-07T03:20:40;10.10;99.90
8914;DHT22;4492;48.736;9.092;2023-05-07T03:23:06;10.00;99.90
8914;DHT22;4492;48.736;9.092;2023-05-07T03:25:32;10.00;99.90
8914;DHT22;4492;48.736;9.092;2023-05-07T03:27:57;9.90;99.90
8914;DHT22;4492;48.736;9.092;2023-05-07T03:30:23;9.90;99.90
8914;DHT22;4492;48.736;9.092;2023-05-07T03:32:49;9.80;99.90
8914;DHT22;4492;48.736;9.092;2023-05-07T03:35:14;9.80;99.90
8914;DHT22;4492;48.736;9.092;2023-05-07T03:37:40;9.80;99.90
8914;DHT22;4492;48.736;9.092;2023-05-07T03:40:06;9.80;99.90
8914;DHT22;4492;48.736;9.092;2023-05-07T03:42:33;9.80;99.90
8914;DHT22;4492;48.736;9.092;2023-05-07T03:44:58;9.80;99.90
8914;DHT22;4492;48.736;9.092;2023-05-07T03:47:24;9.80;99.90
8914;DHT22;4492;48.736;9.092;2023-05-07T03:49:49;9.80;99.90
8914;DHT22;4492;48.736;9.092;2023-05-07T03:52:15;9.70;99.90
8914;DHT22;4492;48.736;9.092;2023-05-07T03:54:41;9.70;99.90
8914;DHT22;4492;48.736;9.092;2023-05-07T03:57:06;9.60;99.90
8914;DHT22;4492;48.736;9.092;2023-05-07T03:59:32;9.60;99.90
8914;DHT22;4492;48.736;9.092;2023-05-07T04:01:58;9.50;99.90
8914;DHT22;4492;48.736;9.092;2023-05-07T04:04:23;9.50;99.90
8914;DHT22;4492;48.736;9.092;2023-05-07T04:06:49;9.40;99.90
8914;DHT22;4492;48.736;9.092;2023-05-07T04:09:14;9.40;99.90
8914;DHT22;4492;48.736;9.092;2023-05-07T04:11:40;9.40;99.90
8914;DHT22;4492;48.736;9.092;2023-05-07T04:14:06;9.40;99.90
8914;DHT22;4492;48.736;9.092;2023-05-07T04:16:31;9.40;99.90
8914;DHT22;4492;48.736;9.092;2023-05-07T04:18:57;9.40;99.90
8914;DHT22;4492;48.736;9.092;2023-05-07T04:21:22;9.50;99.90
8914;DHT22;4492;48.736;9.092;2023-05-07T04:23:48;9.50;99.90
8914;DHT22;4492;48.736;9.092;2023-05-07T04:26:15;9.60;99.90
8914;DHT22;4492;48.736;9.092;2023-05-07T04:28:41;9.60;99.90
8914;DHT22;4492;48.736;9.092;2023-05-07T04:31:07;9.60;99.90
8914;DHT22;4492;48.736;9.092;2023-05-07T04:33:33;9.60;99.90
8914;DHT22;4492;48.736;9.092;2023-05-07T04:36:02;9.70;99.90
8914;DHT22;4492;48.736;9.092;2023-05-07T04:38:32;9.80;99.90
8914;DHT22;4492;48.736;9.092;2023-05-07T04:41:03;9.90;99.90
8914;DHT22;4492;48.736;9.092;2023-05-07T04:43:28;10.00;99.90
8914;DHT22;4492;48.736;9.092;2023-05-07T04:45:54;10.00;99.90
8914;DHT22;4492;48.736;9.092;2023-05-07T04:48:19;10.00;99.90
8914;DHT22;4492;48.736;9.092;2023-05-07T04:50:49;10.00;99.90
8914;DHT22;4492;48.736;9.092;2023-05-07T04:53:15;10.00;99.90
8914;DHT22;4492;48.736;9.092;2023-05-07T04:55:40;10.00;99.90
8914;DHT22;4492;48.736;9.092;2023-05-07T04:58:06;10.00;99.90
8914;DHT22;4492;48.736;9.092;2023-05-07T05:00:31;10.00;99.90
8914;DHT22;4492;48.736;9.092;2023-05-07T05:02:57;10.00;99.90
8914;DHT22;4492;48.736;9.092;2023-05-07T05:05:22;10.00;99.90
8914;DHT22;4492;48.736;9.092;2023-05-07T05:07:48;10.10;99.90
8914;DHT22;4492;48.736;9.092;2023-05-07T05:10:13;10.10;99.90
8914;DHT22;4492;48.736;9.092;2023-05-07T05:12:39;10.20;99.90
8914;DHT22;4492;48.736;9.092;2023-05-07T05:15:05;10.30;99.90
8914;DHT22;4492;48.736;9.092;2023-05-07T05:17:31;10.40;99.90
8914;DHT22;4492;48.736;9.092;2023-05-07T05:19:56;10.50;99.90
8914;DHT22;4492;48.736;9.092;2023-05-07T05:22:22;10.70;99.90
8914;DHT22;4492;48.736;9.092;2023-05-07T05:24:47;10.90;99.90
8914;DHT22;4492;48.736;9.092;2023-05-07T05:27:13;11.10;99.90
8914;DHT22;4492;48.736;9.092;2023-05-07T05:29:38;11.30;99.90
8914;DHT22;4492;48.736;9.092;2023-05-07T05:32:04;11.50;99.90
8914;DHT22;4492;48.736;9.092;2023-05-07T05:34:29;11.70;99.90
8914;DHT22;4492;48.736;9.092;2023-05-07T05:36:55;11.90;99.90
8914;DHT22;4492;48.736;9.092;2023-05-07T05:39:20;12.20;99.90
8914;DHT22;4492;48.736;9.092;2023-05-07T05:41:47;12.50;99.90
8914;DHT22;4492;48.736;9.092;2023-05-07T05:44:13;12.80;99.90
8914;DHT22;4492;48.736;9.092;2023-05-07T05:46:38;13.00;99.90
8914;DHT22;4492;48.736;9.092;2023-05-07T05:49:04;13.30;99.90
8914;DHT22;4492;48.736;9.092;2023-05-07T05:51:29;13.50;99.90
8914;DHT22;4492;48.736;9.092;2023-05-07T05:53:55;13.70;99.90
8914;DHT22;4492;48.736;9.092;2023-05-07T05:56:20;13.90;99.90
8914;DHT22;4492;48.736;9.092;2023-05-07T05:58:46;14.00;99.90
8914;DHT22;4492;48.736;9.092;2023-05-07T06:01:12;14.20;99.90
8914;DHT22;4492;48.736;9.092;2023-05-07T06:03:37;14.40;99.90
8914;DHT22;4492;48.736;9.092;2023-05-07T06:06:03;14.60;99.90
8914;DHT22;4492;48.736;9.092;2023-05-07T06:08:31;14.90;99.90
8914;DHT22;4492;48.736;9.092;2023-05-07T06:10:57;15.10;99.90
8914;DHT22;4492;48.736;9.092;2023-05-07T06:13:23;15.30;99.90
8914;DHT22;4492;48.736;9.092;2023-05-07T06:15:49;15.50;99.90
8914;DHT22;4492;48.736;9.092;2023-05-07T06:18:15;15.50;99.90
8914;DHT22;4492;48.736;9.092;2023-05-07T06:20:40;15.60;99.90
8914;DHT22;4492;48.736;9.092;2023-05-07T06:23:06;15.60;99.90
8914;DHT22;4492;48.736;9.092;2023-05-07T06:25:31;15.60;99.90
8914;DHT22;4492;48.736;9.092;2023-05-07T06:27:57;15.50;99.90
8914;DHT22;4492;48.736;9.092;2023-05-07T06:30:22;15.50;99.90
8914;DHT22;4492;48.736;9.092;2023-05-07T06:32:48;15.40;99.90
8914;DHT22;4492;48.736;9.092;2023-05-07T06:35:13;15.20;99.90
8914;DHT22;4492;48.736;9.092;2023-05-07T06:37:40;15.10;99.90
8914;DHT22;4492;48.736;9.092;2023-05-07T06:40:08;15.00;99.90
8914;DHT22;4492;48.736;9.092;2023-05-07T06:42:35;14.90;99.90
8914;DHT22;4492;48.736;9.092;2023-05-07T06:45:00;14.80;99.90
8914;DHT22;4492;48.736;9.092;2023-05-07T06:47:26;14.80;99.90
8914;DHT22;4492;48.736;9.092;2023-05-07T06:49:51;15.00;99.90
8914;DHT22;4492;48.736;9.092;2023-05-07T06:52:17;15.20;99.90
8914;DHT22;4492;48.736;9.092;2023-05-07T06:54:42;15.50;99.90
8914;DHT22;4492;48.736;9.092;2023-05-07T06:57:08;15.70;99.90
8914;DHT22;4492;48.736;9.092;2023-05-07T06:59:33;15.90;99.90
8914;DHT22;4492;48.736;9.092;2023-05-07T07:01:59;16.20;99.90
8914;DHT22;4492;48.736;9.092;2023-05-07T07:04:24;16.50;99.90
8914;DHT22;4492;48.736;9.092;2023-05-07T07:06:52;16.60;99.90
8914;DHT22;4492;48.736;9.092;2023-05-07T07:09:18;16.50;99.90
8914;DHT22;4492;48.736;9.092;2023-05-07T07:11:43;16.60;99.90
8914;DHT22;4492;48.736;9.092;2023-05-07T07:14:09;16.90;99.90
8914;DHT22;4492;48.736;9.092;2023-05-07T07:16:34;17.20;99.90
8914;DHT22;4492;48.736;9.092;2023-05-07T07:19:00;17.50;99.90
8914;DHT22;4492;48.736;9.092;2023-05-07T07:21:25;17.90;99.90
8914;DHT22;4492;48.736;9.092;2023-05-07T07:23:51;18.20;99.90
8914;DHT22;4492;48.736;9.092;2023-05-07T07:26:17;18.40;99.90
8914;DHT22;4492;48.736;9.092;2023-05-07T07:28:43;18.70;99.90
8914;DHT22;4492;48.736;9.092;2023-05-07T07:31:09;19.00;99.90
8914;DHT22;4492;48.736;9.092;2023-05-07T07:33:35;19.30;99.90
8914;DHT22;4492;48.736;9.092;2023-05-07T07:36:00;19.50;99.90
8914;DHT22;4492;48.736;9.092;2023-05-07T07:38:26;19.70;99.90
8914;DHT22;4492;48.736;9.092;2023-05-07T07:40:51;20.00;99.70
8914;DHT22;4492;48.736;9.092;2023-05-07T07:43:17;20.00;99.50
8914;DHT22;4492;48.736;9.092;2023-05-07T07:45:42;20.20;98.40
8914;DHT22;4492;48.736;9.092;2023-05-07T07:48:08;20.50;98.50
8914;DHT22;4492;48.736;9.092;2023-05-07T07:50:33;20.40;99.00
8914;DHT22;4492;48.736;9.092;2023-05-07T07:52:59;20.70;98.50
8914;DHT22;4492;48.736;9.092;2023-05-07T07:55:25;20.70;97.90
8914;DHT22;4492;48.736;9.092;2023-05-07T07:57:52;20.90;97.40
8914;DHT22;4492;48.736;9.092;2023-05-07T08:00:18;21.10;97.20
8914;DHT22;4492;48.736;9.092;2023-05-07T08:02:43;21.10;96.50
8914;DHT22;4492;48.736;9.092;2023-05-07T08:05:09;20.80;96.70
8914;DHT22;4492;48.736;9.092;2023-05-07T08:07:34;20.70;97.30
8914;DHT22;4492;48.736;9.092;2023-05-07T08:10:00;20.80;96.80
8914;DHT22;4492;48.736;9.092;2023-05-07T08:12:26;20.80;96.70
8914;DHT22;4492;48.736;9.092;2023-05-07T08:14:51;20.80;96.10
8914;DHT22;4492;48.736;9.092;2023-05-07T08:17:17;20.60;97.50
8914;DHT22;4492;48.736;9.092;2023-05-07T08:19:43;20.60;97.50
8914;DHT22;4492;48.736;9.092;2023-05-07T08:22:09;20.90;97.20
8914;DHT22;4492;48.736;9.092;2023-05-07T08:24:35;21.30;97.20
8914;DHT22;4492;48.736;9.092;2023-05-07T08:27:01;21.50;96.20
8914;DHT22;4492;48.736;9.092;2023-05-07T08:29:27;21.80;96.30
8914;DHT22;4492;48.736;9.092;2023-05-07T08:31:52;21.80;95.10
8914;DHT22;4492;48.736;9.092;2023-05-07T08:34:18;21.70;95.90
8914;DHT22;4492;48.736;9.092;2023-05-07T08:36:44;21.80;96.00
8914;DHT22;4492;48.736;9.092;2023-05-07T08:39:12;21.60;95.80
8914;DHT22;4492;48.736;9.092;2023-05-07T08:41:37;21.50;95.70
8914;DHT22;4492;48.736;9.092;2023-05-07T08:44:05;21.20;95.70
8914;DHT22;4492;48.736;9.092;2023-05-07T08:46:32;21.20;96.30
8914;DHT22;4492;48.736;9.092;2023-05-07T08:48:58;21.40;95.80
8914;DHT22;4492;48.736;9.092;2023-05-07T08:51:23;21.40;96.30
8914;DHT22;4492;48.736;9.092;2023-05-07T08:53:49;21.60;96.20
8914;DHT22;4492;48.736;9.092;2023-05-07T08:56:16;21.70;96.30
8914;DHT22;4492;48.736;9.092;2023-05-07T08:58:44;21.80;96.20
8914;DHT22;4492;48.736;9.092;2023-05-07T09:01:13;21.90;95.80
8914;DHT22;4492;48.736;9.092;2023-05-07T09:03:39;22.00;95.70
8914;DHT22;4492;48.736;9.092;2023-05-07T09:06:06;22.10;95.60
8914;DHT22;4492;48.736;9.092;2023-05-07T09:08:33;22.10;95.00
8914;DHT22;4492;48.736;9.092;2023-05-07T09:10:59;22.10;95.40
8914;DHT22;4492;48.736;9.092;2023-05-07T09:13:25;22.20;95.50
8914;DHT22;4492;48.736;9.092;2023-05-07T09:15:52;22.30;95.10
8914;DHT22;4492;48.736;9.092;2023-05-07T09:18:18;22.20;95.60
8914;DHT22;4492;48.736;9.092;2023-05-07T09:20:43;22.20;94.70
8914;DHT22;4492;48.736;9.092;2023-05-07T09:23:09;22.20;94.90
8914;DHT22;4492;48.736;9.092;2023-05-07T09:25:36;22.30;94.50
8914;DHT22;4492;48.736;9.092;2023-05-07T09:28:02;22.20;95.10
8914;DHT22;4492;48.736;9.092;2023-05-07T09:30:29;22.30;94.60
8914;DHT22;4492;48.736;9.092;2023-05-07T09:32:56;22.40;94.60
8914;DHT22;4492;48.736;9.092;2023-05-07T09:35:21;22.50;95.80
8914;DHT22;4492;48.736;9.092;2023-05-07T09:37:49;22.60;94.60
8914;DHT22;4492;48.736;9.092;2023-05-07T09:40:22;22.50;94.50
8914;DHT22;4492;48.736;9.092;2023-05-07T09:42:49;22.70;94.60
8914;DHT22;4492;48.736;9.092;2023-05-07T09:45:22;22.80;94.40
8914;DHT22;4492;48.736;9.092;2023-05-07T09:47:48;22.80;94.60
8914;DHT22;4492;48.736;9.092;2023-05-07T09:50:16;22.70;93.80
8914;DHT22;4492;48.736;9.092;2023-05-07T09:52:42;22.50;94.20
8914;DHT22;4492;48.736;9.092;2023-05-07T09:55:09;22.50;94.90
8914;DHT22;4492;48.736;9.092;2023-05-07T09:57:36;22.60;94.20
8914;DHT22;4492;48.736;9.092;2023-05-07T10:00:03;22.60;93.50
8914;DHT22;4492;48.736;9.092;2023-05-07T10:02:31;22.50;93.30
8914;DHT22;4492;48.736;9.092;2023-05-07T10:05:02;22.50;94.30
8914;DHT22;4492;48.736;9.092;2023-05-07T10:07:29;22.80;94.00
8914;DHT22;4492;48.736;9.092;2023-05-07T10:09:55;23.00;95.10
8914;DHT22;4492;48.736;9.092;2023-05-07T10:12:21;23.30;93.10
8914;DHT22;4492;48.736;9.092;2023-05-07T10:14:47;23.60;93.30
8914;DHT22;4492;48.736;9.092;2023-05-07T10:17:15;23.90;91.60
8914;DHT22;4492;48.736;9.092;2023-05-07T10:19:43;24.20;91.10
8914;DHT22;4492;48.736;9.092;2023-05-07T10:22:10;24.40;91.20
8914;DHT22;4492;48.736;9.092;2023-05-07T10:24:36;24.50;90.20
8914;DHT22;4492;48.736;9.092;2023-05-07T10:27:07;24.60;91.30
8914;DHT22;4492;48.736;9.092;2023-05-07T10:32:40;24.20;88.90
8914;DHT22;4492;48.736;9.092;2023-05-07T10:35:16;24.10;89.00
8914;DHT22;4492;48.736;9.092;2023-05-07T10:37:43;24.20;89.70
8914;DHT22;4492;48.736;9.092;2023-05-07T10:40:10;24.30;89.50
8914;DHT22;4492;48.736;9.092;2023-05-07T10:42:37;24.50;89.80
8914;DHT22;4492;48.736;9.092;2023-05-07T10:45:15;24.80;88.60
8914;DHT22;4492;48.736;9.092;2023-05-07T10:50:33;25.50;86.10
8914;DHT22;4492;48.736;9.092;2023-05-07T10:56:29;25.40;82.30
8914;DHT22;4492;48.736;9.092;2023-05-07T10:58:29;24.70;85.10
8914;DHT22;4492;48.736;9.092;2023-05-07T11:00:59;23.90;85.70
8914;DHT22;4492;48.736;9.092;2023-05-07T11:03:25;24.20;86.90
8914;DHT22;4492;48.736;9.092;2023-05-07T11:08:55;24.60;85.30
8914;DHT22;4492;48.736;9.092;2023-05-07T11:11:46;24.70;84.90
8914;DHT22;4492;48.736;9.092;2023-05-07T11:17:06;24.70;84.50
8914;DHT22;4492;48.736;9.092;2023-05-07T11:19:51;24.50;84.80
8914;DHT22;4492;48.736;9.092;2023-05-07T11:25:05;24.20;83.40
8914;DHT22;4492;48.736;9.092;2023-05-07T11:27:32;23.90;83.30
8914;DHT22;4492;48.736;9.092;2023-05-07T11:29:58;23.70;83.60
8914;DHT22;4492;48.736;9.092;2023-05-07T11:32:27;23.50;84.50
8914;DHT22;4492;48.736;9.092;2023-05-07T11:34:57;23.30;85.10
8914;DHT22;4492;48.736;9.092;2023-05-07T11:37:25;23.10;86.40
8914;DHT22;4492;48.736;9.092;2023-05-07T11:40:05;22.80;85.40
8914;DHT22;4492;48.736;9.092;2023-05-07T11:42:33;22.60;86.00
8914;DHT22;4492;48.736;9.092;2023-05-07T11:45:00;22.40;90.60
8914;DHT22;4492;48.736;9.092;2023-05-07T11:47:26;22.30;91.40
8914;DHT22;4492;48.736;9.092;2023-05-07T11:49:53;22.00;93.00
8914;DHT22;4492;48.736;9.092;2023-05-07T11:52:21;21.60;93.90
8914;DHT22;4492;48.736;9.092;2023-05-07T11:54:55;21.30;94.10
8914;DHT22;4492;48.736;9.092;2023-05-07T11:57:22;20.90;95.30
8914;DHT22;4492;48.736;9.092;2023-05-07T11:59:47;20.40;96.70
8914;DHT22;4492;48.736;9.092;2023-05-07T12:02:14;19.90;98.40
8914;DHT22;4492;48.736;9.092;2023-05-07T12:04:40;19.40;99.00
8914;DHT22;4492;48.736;9.092;2023-05-07T12:07:10;18.90;99.90
8914;DHT22;4492;48.736;9.092;2023-05-07T12:09:36;18.50;99.90
8914;DHT22;4492;48.736;9.092;2023-05-07T12:12:03;18.20;99.90
8914;DHT22;4492;48.736;9.092;2023-05-07T12:14:29;17.80;99.90
8914;DHT22;4492;48.736;9.092;2023-05-07T12:16:55;17.40;99.90
8914;DHT22;4492;48.736;9.092;2023-05-07T12:19:21;17.10;99.90
8914;DHT22;4492;48.736;9.092;2023-05-07T12:21:48;16.70;99.90
8914;DHT22;4492;48.736;9.092;2023-05-07T12:24:14;16.50;99.90
8914;DHT22;4492;48.736;9.092;2023-05-07T12:26:40;16.30;99.90
8914;DHT22;4492;48.736;9.092;2023-05-07T12:29:06;16.30;99.90
8914;DHT22;4492;48.736;9.092;2023-05-07T12:31:32;16.20;99.90
8914;DHT22;4492;48.736;9.092;2023-05-07T12:33:58;16.20;99.90
8914;DHT22;4492;48.736;9.092;2023-05-07T12:36:23;16.10;99.90
8914;DHT22;4492;48.736;9.092;2023-05-07T12:38:50;16.00;99.90
8914;DHT22;4492;48.736;9.092;2023-05-07T12:41:16;15.80;99.90
8914;DHT22;4492;48.736;9.092;2023-05-07T12:43:44;15.70;99.90
8914;DHT22;4492;48.736;9.092;2023-05-07T12:46:11;15.60;99.90
8914;DHT22;4492;48.736;9.092;2023-05-07T12:48:43;15.60;99.90
8914;DHT22;4492;48.736;9.092;2023-05-07T12:51:09;15.50;99.90
8914;DHT22;4492;48.736;9.092;2023-05-07T12:53:40;15.40;99.90
8914;DHT22;4492;48.736;9.092;2023-05-07T12:56:06;15.50;99.90
8914;DHT22;4492;48.736;9.092;2023-05-07T12:58:35;15.60;99.90
8914;DHT22;4492;48.736;9.092;2023-05-07T13:01:05;15.70;99.90
8914;DHT22;4492;48.736;9.092;2023-05-07T13:03:36;15.80;99.90
8914;DHT22;4492;48.736;9.092;2023-05-07T13:06:07;15.80;99.90
8914;DHT22;4492;48.736;9.092;2023-05-07T13:08:36;15.90;99.90
8914;DHT22;4492;48.736;9.092;2023-05-07T13:11:03;15.90;99.90
8914;DHT22;4492;48.736;9.092;2023-05-07T13:13:33;16.00;99.90
8914;DHT22;4492;48.736;9.092;2023-05-07T13:15:59;16.00;99.90
8914;DHT22;4492;48.736;9.092;2023-05-07T13:18:26;16.00;99.90
8914;DHT22;4492;48.736;9.092;2023-05-07T13:20:52;16.00;99.90
8914;DHT22;4492;48.736;9.092;2023-05-07T13:23:18;16.00;99.90
8914;DHT22;4492;48.736;9.092;2023-05-07T13:25:43;15.90;99.90
8914;DHT22;4492;48.736;9.092;2023-05-07T13:28:09;15.80;99.90
8914;DHT22;4492;48.736;9.092;2023-05-07T13:30:35;15.80;99.90
8914;DHT22;4492;48.736;9.092;2023-05-07T13:33:00;15.80;99.90
8914;DHT22;4492;48.736;9.092;2023-05-07T13:35:26;15.70;99.90
8914;DHT22;4492;48.736;9.092;2023-05-07T13:37:51;15.70;99.90
8914;DHT22;4492;48.736;9.092;2023-05-07T13:40:17;15.60;99.90
8914;DHT22;4492;48.736;9.092;2023-05-07T13:42:44;15.50;99.90
8914;DHT22;4492;48.736;9.092;2023-05-07T13:45:10;15.30;99.90
8914;DHT22;4492;48.736;9.092;2023-05-07T13:47:35;15.30;99.90
8914;DHT22;4492;48.736;9.092;2023-05-07T13:50:01;15.40;99.90
8914;DHT22;4492;48.736;9.092;2023-05-07T13:52:26;15.40;99.90
8914;DHT22;4492;48.736;9.092;2023-05-07T13:54:52;15.40;99.90
8914;DHT22;4492;48.736;9.092;2023-05-07T13:57:18;15.40;99.90
8914;DHT22;4492;48.736;9.092;2023-05-07T13:59:43;15.50;99.90
8914;DHT22;4492;48.736;9.092;2023-05-07T14:02:09;15.40;99.90
8914;DHT22;4492;48.736;9.092;2023-05-07T14:04:34;15.30;99.90
8914;DHT22;4492;48.736;9.092;2023-05-07T14:07:00;15.30;99.90
8914;DHT22;4492;48.736;9.092;2023-05-07T14:09:25;15.20;99.90
8914;DHT22;4492;48.736;9.092;2023-05-07T14:11:51;15.20;99.90
8914;DHT22;4492;48.736;9.092;2023-05-07T14:14:18;15.10;99.90
8914;DHT22;4492;48.736;9.092;2023-05-07T14:16:44;15.20;99.90
8914;DHT22;4492;48.736;9.092;2023-05-07T14:19:10;15.20;99.90
8914;DHT22;4492;48.736;9.092;2023-05-07T14:21:36;15.10;99.90
8914;DHT22;4492;48.736;9.092;2023-05-07T14:24:01;15.00;99.90
8914;DHT22;4492;48.736;9.092;2023-05-07T14:26:27;15.00;99.90
8914;DHT22;4492;48.736;9.092;2023-05-07T14:28:53;14.90;99.90
8914;DHT22;4492;48.736;9.092;2023-05-07T14:31:20;15.00;99.90
8914;DHT22;4492;48.736;9.092;2023-05-07T14:33:46;15.00;99.90
8914;DHT22;4492;48.736;9.092;2023-05-07T14:36:11;15.00;99.90
8914;DHT22;4492;48.736;9.092;2023-05-07T14:38:37;15.00;99.90
8914;DHT22;4492;48.736;9.092;2023-05-07T14:41:03;15.00;99.90
8914;DHT22;4492;48.736;9.092;2023-05-07T14:43:29;14.90;99.90
8914;DHT22;4492;48.736;9.092;2023-05-07T14:45:54;14.90;99.90
8914;DHT22;4492;48.736;9.092;2023-05-07T14:48:20;14.90;99.90
8914;DHT22;4492;48.736;9.092;2023-05-07T14:50:47;15.00;99.90
8914;DHT22;4492;48.736;9.092;2023-05-07T14:53:13;15.00;99.90
8914;DHT22;4492;48.736;9.092;2023-05-07T14:55:39;15.00;99.90
8914;DHT22;4492;48.736;9.092;2023-05-07T14:58:04;15.00;99.90
8914;DHT22;4492;48.736;9.092;2023-05-07T15:00:30;15.00;99.90
8914;DHT22;4492;48.736;9.092;2023-05-07T15:03:05;15.00;99.90
8914;DHT22;4492;48.736;9.092;2023-05-07T15:05:31;15.10;99.90
8914;DHT22;4492;48.736;9.092;2023-05-07T15:07:57;15.10;99.90
8914;DHT22;4492;48.736;9.092;2023-05-07T15:10:22;15.20;99.90
8914;DHT22;4492;48.736;9.092;2023-05-07T15:12:48;15.30;99.90
8914;DHT22;4492;48.736;9.092;2023-05-07T15:15:13;15.40;99.90
8914;DHT22;4492;48.736;9.092;2023-05-07T15:17:39;15.50;99.90
8914;DHT22;4492;48.736;9.092;2023-05-07T15:20:05;15.60;99.90
8914;DHT22;4492;48.736;9.092;2023-05-07T15:22:31;15.70;99.90
8914;DHT22;4492;48.736;9.092;2023-05-07T15:24:56;15.80;99.90
8914;DHT22;4492;48.736;9.092;2023-05-07T15:27:24;15.90;99.90
8914;DHT22;4492;48.736;9.092;2023-05-07T15:29:49;16.00;99.90
8914;DHT22;4492;48.736;9.092;2023-05-07T15:32:15;16.10;99.90
8914;DHT22;4492;48.736;9.092;2023-05-07T15:34:40;16.30;99.90
8914;DHT22;4492;48.736;9.092;2023-05-07T15:37:06;16.40;99.90
8914;DHT22;4492;48.736;9.092;2023-05-07T15:39:32;16.50;99.90
8914;DHT22;4492;48.736;9.092;2023-05-07T15:41:58;16.70;99.90
8914;DHT22;4492;48.736;9.092;2023-05-07T15:44:23;16.70;99.90
8914;DHT22;4492;48.736;9.092;2023-05-07T15:46:53;16.80;99.90
8914;DHT22;4492;48.736;9.092;2023-05-07T15:49:18;16.80;99.90
8914;DHT22;4492;48.736;9.092;2023-05-07T15:51:44;16.80;99.90
8914;DHT22;4492;48.736;9.092;2023-05-07T15:54:09;16.80;99.90
8914;DHT22;4492;48.736;9.092;2023-05-07T15:56:35;16.80;99.90
8914;DHT22;4492;48.736;9.092;2023-05-07T15:59:00;16.80;99.90
8914;DHT22;4492;48.736;9.092;2023-05-07T16:01:27;16.80;99.90
8914;DHT22;4492;48.736;9.092;2023-05-07T16:03:52;16.80;99.90
8914;DHT22;4492;48.736;9.092;2023-05-07T16:06:18;16.80;99.90
8914;DHT22;4492;48.736;9.092;2023-05-07T16:08:44;16.90;99.90
8914;DHT22;4492;48.736;9.092;2023-05-07T16:11:09;16.90;99.90
8914;DHT22;4492;48.736;9.092;2023-05-07T16:13:35;16.90;99.90